Maryville, TN (37803)

8:51 PM EST on February 22, 2017 (GMT -0500)
Maryville | | Change Station

Elev 962 ft 35.74 °N, 83.97 °W | Updated 1 minute ago

Partly Cloudy
Partly Cloudy
57.9 °F
Feels Like 57.9 °F
N
0.0
Wind Variable Wind from NNE
Gusts 0.0 mph

Today
High -- | Low -- °F
--% Chance of Precip.
Yesterday
High -- | Low -- °F
Precip. -- in
Pressure 29.89 in
Visibility 10.0 miles
Clouds Scattered Clouds 900 ft
Scattered Clouds 4500 ft
Scattered Clouds 12000 ft
Mostly Cloudy 25000 ft
Dew Point 49 °F
Humidity 73%
Rainfall 0.12 in
Snow Depth Not available.
7:14 AM 6:24 PM
Waning Crescent, 13% visible
SPECI KTYS 230111Z 07004KT 10SM SCT009 SCT045 SCT120 BKN250 14/12 A2989 RMK AO2 T01440122
Pressure 29.89 in
Visibility 10.0 miles
Clouds Scattered Clouds 900 ft
Scattered Clouds 4500 ft
Scattered Clouds 12000 ft
Mostly Cloudy 25000 ft
Dew Point 49 °F
Humidity 73%
Rainfall 0.12 in
Snow Depth Not available.
7:14 AM 6:24 PM
Waning Crescent, 13% visible
SPECI KTYS 230111Z 07004KT 10SM SCT009 SCT045 SCT120 BKN250 14/12 A2989 RMK AO2 T01440122

Get Your Daily Forecast Email!

Thanks for signing up!

Be on the lookout for a verification email in your inbox.

You'll start receiving the daily forecast at 8 AM.

×

10-Day Weather Forecast

Almanac

Astronomy

Feb. 22, 2017 Rise Set
Actual Time
Civil Twilight
Nautical Twilight
Astronomical Twilight
Moon
Length of Visible Light
Length of Day
Tomorrow will be .
, % of the Moon is Illuminated

Today's Extremes

State Highs State Lows

Community

WunderPhotos

Upload Photos

1,962,540 photos uploaded!

WunderBlog® & News

Nearby

Air Quality

  Air Quality AQ Index Pollutant
Not available.

Snow Depth

Station Depth Elevation

Earthquake Activity

City Distance Mag. Time & Date
Minimum magnitude displayed is 2.5.

Coastal Water Temperatures

Place Temperature

Stations

Nearby Weather Stations

Station Location Temp. Windchill Dew Point Humidity Wind Precip. Elev Updated Type
                   

Watches & Warnings

There are currently no watches in effect.